Timeline UpdatesTrip UpdatesNews PostsPvt PostsTravel TipsAdmin PostsConv PostsFollowed PostsChat RequestsBlog PostsPNR Posts

Disclaimer
Search
 
 
Sat Apr 19, 2014 07:27:42 ISTHomeTrainsΣChainsAtlasPNRForumGalleryNewsFAQTripsMembersLoginFeedback
No Recent News for this Train
Other Trains in the News **new
Latest...
Temporary Stop at Vindhyachal (BDL) for 2 min from 31/3/14-11/4/14 #1040164. ***Temporary Augmentation of 1 3AC coach from 4/4/14-27/6/14 #1043381
Wed Apr 02, 2014 (11:27PM)
⇐ Return Journey: Train# 15648

15647/Mumbai LTT-Guwahati Weekly Express

Nov 15 2013 (5:21PM)
Change Departure Station:
Change Arrival Station:
Post a Train Travel TipPost a Train Travel Tip **new
Post a Comment/Question/Picture/VideoPost a Comment/Question/Picture/Video
Pantry/Catering
✓ Pantry Car Avbl
✓ Catering Avbl
RSA - Rake Sharing
Rake/Coach Composition
2A-1; 3A-3; SL-12; GEN-3; PC-1; SLR-2 :: 22 COACH
Loco
ET-GHY =>ET WDMx
News    PNR    Forum    Time-Table    Availability    Fare Chart    Map    Arr/Dep History    Trips    Gallery    ΣChains    X/O    Timeline    
Travel Time: 30h 50m    37 halts    Distance: 1402 km    Avg Speed: 45 km/hr
Type: Mail/Express
Zone: NFR/Northeast Frontier
Departs @ 06:10 (Avg 19m late)
Platform# ???
      S
Chheoki Junction/COI 
Arrives @ 13:00 +1 night (Avg 1h 59m late)
Platform# ???
S      
Guwahati/GHY 

37 halts. 257 intermediate Stations between Chheoki Junction and Guwahati

Show ALL intermediate Stations  Show Old Time-Table

#CodeStation NameX/OArrivesAvgDepartsAvgHaltPFDay#KmSpeedElevZoneAddress
1LTTMumbai Lokmanya Tilak Terminus (5)  -08:05+1:0351-1337.1737mCRMumbai, Maharashtra
2KYNKalyan Junction (8)X  08:35+1708:40+175m41-1300.44310mCRKalyan 421301, Maharashtra
3IGPIgatpuri (4)10:35+110:40+55m21-1218.696589mCRIgatpuri 422403, Maharashtra
4DVLDevlali (3)X  11:08+2711:10+282m11-1173.719561mCRDist. Nashik 422401, Maharashtra
5NKNasik Road (3)  11:28+2011:30+252m11-1167.979563mCRNashik 422101, Maharashtra
6MMRManmad Junction (6)  12:25+2712:30+255m11-1095.282580mCRManmad 423104, Maharashtra
7BSLBhusaval Junction (8)X  14:45+2314:55+2910m--1-911.076208mCRBhusaval 425201, Maharashtra
8BAUBurhanpur (2)X  15:38+4115:40+422m21-856.536269mCRBurhanpur, Madhya Pradesh
9KNWKhandwa Junction (5)  17:35+617:40+65m--1-787.6111310mCRKhandwa, Madhya Pradesh
10HDHarda (3)OO  18:38+2118:40+212m--1-680.057289mWCRHarda, Madhya Pradesh
11ETItarsi Junction (7)X20:00+920:10+1410m--1-604.272329mWCRItarsi 461111, Madhya Pradesh
12PPIPipariya (3)  21:06+2721:08+282m--1-536.981338mWCRPiparia, Madhya Pradesh
13JBPJabalpur Junction (7)X  23:20+3323:30+3510m--1-359.078416mWCRJabalpur, Madhya Pradesh
14KTEKatni Junction (6)X  00:40+4000:45+395m--2-268.369387mWCRKatni, Madhya Pradesh
15STASatna Junction (3)XO  02:10+3502:20+3610m--2-170.045322mWCRSatna, Madhya Pradesh
16COI»Chheoki Junction (3)»  06:05+1806:10+195m--20.08096mNCRDist.-Allahabad, Uttar Pradesh
17MZPMirzapur (3)X  07:10+3507:15+345m--280.43888mNCRMirzapur, Uttar Pradesh
18MGSMughal Sarai Junction (8)  08:55+5109:10+5115m--2143.67583mECRMughalsarai 232101, Uttar Pradesh
19DLNDildarnagar Junction (2)  09:56+1:0209:58+1:022m--2201.38072mECRDildarnagar, Uttar Pradesh
20BXRBuxar (3)  10:25+1:0510:27+1:052m--2237.58967mECRBuxar, Bihar
21DUREDumraon (3)X  10:38+1:0810:40+1:082m--2253.98070mECRDumraon, Bihar
22ARAAra Junction (3)  11:19+1:1111:21+1:122m--2306.09163mECRarrah( 06182-233411), Bihar
23DNRDanapur (5)X  11:47+1:3611:57+1:3810m--2345.61158mECRKhagaul, Bihar
24PNBEPatna Junction (10)X  12:50+1:1613:00+1:1910m82355.03557mECRPatna 800001, Bihar
25PNCPatna Saheb (3)  13:17+1:2413:19+1:252m--2364.84359mECRPatna, Bihar
26FUTFatwa (6)  13:36+1:2613:38+1:282m--2377.16353mECRPatna, Bihar
27KOOKhusropur (2)  13:46+1:3013:48+1:302m--2385.56252mECRPatna, Bihar
28BKPBakhtiyarpur Junction (5)  14:02+1:3914:04+1:432m--2400.16151mECRPatna, Bihar
29BARHBarh (3)  14:22+1:4314:24+1:432m--2418.34349mECRBarh, Bihar
30MKAMokama Junction (3)X  15:00+1:3915:05+1:365m--2444.25648mECRPatna, Bihar
31HTZHathidah Junction (2)  15:14+1:3815:16+1:382m12452.66350mECRMusahari, Bihar
32BRYABarhiya  15:25+1:4115:27+1:412m--2462.03547mECRBarahiya, Bihar
33LKRLuckeesarai Junction (2)  15:53+1:3715:55+1:372m--2477.1852mECRLakhisarai, Bihar
34KIULKiul Junction (5)X  16:05+1:3516:12+1:357m--2478.45153mECRDist. Lakhisarai, Bihar
35AHAAbhaipur  16:39+1:4016:41+1:402m--2501.44252mERAbhaipur, Bihar
36JMPJamalpur Junction (4)X  17:12+1:4117:27+1:4015m--2523.36159mERJamalpur 06344-243101, Bihar
37BUPBariarpur (3)  17:38+1:4517:40+1:452m--2534.45442mERMunger, Bihar
38SGGSultanGanj  18:00+1:4218:02+1:422m--2552.34542mERSultanganj, Bihar
39BGPBhagalpur Junction (6)  18:35+1:3718:50+1:3715m--2577.36949mERBhagalpur, Bihar
40CLGKahalgaon (2)X  19:16+1:4519:18+1:452m22607.43944mERBhagalpur, Bihar
41SBGSahibganj Junction (3)  20:25+1:3820:35+1:4610m12651.24538mERSahibganj, Jharkhand
42BHWBarharwa Junction (3)  21:48+1:3921:50+1:402m22705.74036mERBarharwa, Jharkhand
43NFKNew Farakka Junction (3)  22:17+1:3422:19+1:362m22723.73532mERDist - Murshidabad, West Bengal
44MLDTMalda Town (5)X  23:20+1:2023:35+1:1715m--2758.87430mERDist - Malda, West Bengal
45KNEKishanGanj (3)  01:35+1:3801:40+1:385m--3906.95052mNFRKishanganj, Bihar
46NJPNew Jalpaiguri Junction (8)X  03:25+1:4003:40+1:4115m--3994.249114mNFRCity-Siliguri . Dist-Jalpaiguri, West Bengal
47DQGDhupguri (2)  05:00+1:3505:05+1:355m--31059.66075mNFRDist - Jalpaiguri, West Bengal
48NCBNew Cooch Behar Junction (5)  06:05+1:3206:10+1:315m--31119.74547mNFRCooch Behar, West Bengal
49NOQNew Alipurduar (2)  06:35+1:4706:40+1:475m--31138.45348mNFRAlipurduar-736121 03564-255207, West Bengal
50NBQNew Bongaigaon Junction (4)  08:40+1:3808:50+1:3710m--31245.14358mNFR783381., Assam
51BPRDBarpeta Road  09:52+1:1109:57+1:115m--31289.25049mNFRHowli, Assam
52RNYRangiya Junction (5)  11:15+1:0311:25+1:0410m--31354.03858mNFRRangia, Assam
53KYQKamakhya Junction (4)  12:30+1:5612:35+1:565m--31394.71755mNFRDist - KAMRUP, Assam
54GHY•Guwahati (7)•  13:00+1:59---31401.7-60mNFRGuwahati, Assam
Scroll to Top
Scroll to Bottom